Santa Rosa, Argentina
Current Conditions -  °F | °C
As of 6:00 PM on Wednesday 22 Oct 2014 (Local Time) from SAME Reporting Station
Scattered Clouds Scattered Clouds  
Wind Chill: 31°   Ceiling: Unl
Heat Index: 31°   Visibility: 6mi
Dew Point: 12°   Wind: 2mph
Humidity: 31%   Direction: 180°S
Pressure: 29.85"   Gusts: NA
Location:  33.25°S, 68.15°W
Report Text: SAME 222100Z 18002KT 9999 FEW045 SCT050TCU 31/12 Q1011
Loading
Personal Weather Stations






























Interactive Weather Map
Tropical Storm Tracking
New forecast layout! Learn more

10-Day Weather Forecast

Advertisements
Track Severe Weather on mobile